sensor_id;sensor_type;location;lat;lon;timestamp;P1;durP1;ratioP1;P2;durP2;ratioP2
48207;SDS011;33997;53.278;9.708;2023-02-17T00:01:55;87.20;;;46.28;;
48207;SDS011;33997;53.278;9.708;2023-02-17T00:04:20;87.47;;;44.53;;
48207;SDS011;33997;53.278;9.708;2023-02-17T00:06:46;81.82;;;44.05;;
48207;SDS011;33997;53.278;9.708;2023-02-17T00:09:11;81.43;;;44.38;;
48207;SDS011;33997;53.278;9.708;2023-02-17T00:11:37;85.72;;;43.70;;
48207;SDS011;33997;53.278;9.708;2023-02-17T00:14:02;81.97;;;42.72;;
48207;SDS011;33997;53.278;9.708;2023-02-17T00:16:28;76.88;;;41.88;;
48207;SDS011;33997;53.278;9.708;2023-02-17T00:18:55;75.63;;;41.78;;
48207;SDS011;33997;53.278;9.708;2023-02-17T00:21:23;78.50;;;42.22;;
48207;SDS011;33997;53.278;9.708;2023-02-17T00:23:50;74.32;;;41.20;;
48207;SDS011;33997;53.278;9.708;2023-02-17T00:26:17;70.15;;;40.00;;
48207;SDS011;33997;53.278;9.708;2023-02-17T00:28:43;74.22;;;39.40;;
48207;SDS011;33997;53.278;9.708;2023-02-17T00:31:10;72.80;;;39.67;;
48207;SDS011;33997;53.278;9.708;2023-02-17T00:33:39;66.55;;;39.72;;
48207;SDS011;33997;53.278;9.708;2023-02-17T00:36:05;68.70;;;39.47;;
48207;SDS011;33997;53.278;9.708;2023-02-17T00:38:32;65.85;;;38.22;;
48207;SDS011;33997;53.278;9.708;2023-02-17T00:40:57;70.90;;;40.55;;
48207;SDS011;33997;53.278;9.708;2023-02-17T00:43:23;73.60;;;39.58;;
48207;SDS011;33997;53.278;9.708;2023-02-17T00:45:49;71.22;;;38.35;;
48207;SDS011;33997;53.278;9.708;2023-02-17T00:48:14;73.90;;;39.38;;
48207;SDS011;33997;53.278;9.708;2023-02-17T00:50:40;64.57;;;37.78;;
48207;SDS011;33997;53.278;9.708;2023-02-17T00:53:05;68.88;;;38.72;;
48207;SDS011;33997;53.278;9.708;2023-02-17T00:55:31;68.03;;;38.63;;
48207;SDS011;33997;53.278;9.708;2023-02-17T00:57:56;63.30;;;36.10;;
48207;SDS011;33997;53.278;9.708;2023-02-17T01:00:22;71.10;;;40.40;;
48207;SDS011;33997;53.278;9.708;2023-02-17T01:02:47;73.13;;;39.80;;
48207;SDS011;33997;53.278;9.708;2023-02-17T01:05:13;65.78;;;36.75;;
48207;SDS011;33997;53.278;9.708;2023-02-17T01:07:38;70.57;;;38.75;;
48207;SDS011;33997;53.278;9.708;2023-02-17T01:10:05;73.82;;;39.70;;
48207;SDS011;33997;53.278;9.708;2023-02-17T01:12:31;72.05;;;40.35;;
48207;SDS011;33997;53.278;9.708;2023-02-17T01:14:57;74.13;;;39.95;;
48207;SDS011;33997;53.278;9.708;2023-02-17T01:17:24;69.25;;;40.55;;
48207;SDS011;33997;53.278;9.708;2023-02-17T01:19:49;76.18;;;39.10;;
48207;SDS011;33997;53.278;9.708;2023-02-17T01:22:15;76.25;;;39.95;;
48207;SDS011;33997;53.278;9.708;2023-02-17T01:24:40;78.32;;;40.45;;
48207;SDS011;33997;53.278;9.708;2023-02-17T01:27:06;69.95;;;39.13;;
48207;SDS011;33997;53.278;9.708;2023-02-17T01:29:31;77.03;;;40.83;;
48207;SDS011;33997;53.278;9.708;2023-02-17T01:31:57;71.50;;;38.17;;
48207;SDS011;33997;53.278;9.708;2023-02-17T01:34:22;72.07;;;36.85;;
48207;SDS011;33997;53.278;9.708;2023-02-17T01:36:47;67.80;;;35.55;;
48207;SDS011;33997;53.278;9.708;2023-02-17T01:39:14;66.95;;;35.35;;
48207;SDS011;33997;53.278;9.708;2023-02-17T01:41:43;63.72;;;36.53;;
48207;SDS011;33997;53.278;9.708;2023-02-17T01:44:18;68.15;;;36.90;;
48207;SDS011;33997;53.278;9.708;2023-02-17T01:46:49;65.68;;;35.38;;
48207;SDS011;33997;53.278;9.708;2023-02-17T01:49:30;65.88;;;35.40;;
48207;SDS011;33997;53.278;9.708;2023-02-17T01:52:07;54.88;;;31.83;;
48207;SDS011;33997;53.278;9.708;2023-02-17T01:54:48;53.80;;;31.07;;
48207;SDS011;33997;53.278;9.708;2023-02-17T01:57:17;57.13;;;32.22;;
48207;SDS011;33997;53.278;9.708;2023-02-17T01:59:45;53.70;;;30.60;;
48207;SDS011;33997;53.278;9.708;2023-02-17T02:02:12;54.70;;;30.88;;
48207;SDS011;33997;53.278;9.708;2023-02-17T02:04:39;57.95;;;32.03;;
48207;SDS011;33997;53.278;9.708;2023-02-17T02:07:09;60.00;;;33.08;;
48207;SDS011;33997;53.278;9.708;2023-02-17T02:09:39;54.88;;;31.98;;
48207;SDS011;33997;53.278;9.708;2023-02-17T02:12:15;49.00;;;29.90;;
48207;SDS011;33997;53.278;9.708;2023-02-17T02:14:43;49.72;;;30.10;;
48207;SDS011;33997;53.278;9.708;2023-02-17T02:17:11;54.80;;;31.25;;
48207;SDS011;33997;53.278;9.708;2023-02-17T02:19:55;45.20;;;28.83;;
48207;SDS011;33997;53.278;9.708;2023-02-17T02:28:35;56.25;;;30.80;;
48207;SDS011;33997;53.278;9.708;2023-02-17T02:31:27;47.97;;;26.15;;
48207;SDS011;33997;53.278;9.708;2023-02-17T02:34:22;43.72;;;25.33;;
48207;SDS011;33997;53.278;9.708;2023-02-17T02:36:54;52.72;;;28.15;;
48207;SDS011;33997;53.278;9.708;2023-02-17T02:39:25;48.22;;;28.83;;
48207;SDS011;33997;53.278;9.708;2023-02-17T02:42:00;48.78;;;27.40;;
48207;SDS011;33997;53.278;9.708;2023-02-17T02:44:29;38.95;;;25.02;;
48207;SDS011;33997;53.278;9.708;2023-02-17T02:46:55;48.75;;;26.75;;
48207;SDS011;33997;53.278;9.708;2023-02-17T02:49:25;44.38;;;24.83;;
48207;SDS011;33997;53.278;9.708;2023-02-17T02:59:45;44.83;;;23.98;;
48207;SDS011;33997;53.278;9.708;2023-02-17T03:02:28;46.03;;;25.75;;
48207;SDS011;33997;53.278;9.708;2023-02-17T03:05:10;43.80;;;24.90;;
48207;SDS011;33997;53.278;9.708;2023-02-17T03:07:41;42.97;;;25.00;;
48207;SDS011;33997;53.278;9.708;2023-02-17T03:10:14;40.60;;;22.90;;
48207;SDS011;33997;53.278;9.708;2023-02-17T03:12:40;50.75;;;25.77;;
48207;SDS011;33997;53.278;9.708;2023-02-17T03:15:13;43.80;;;23.90;;
48207;SDS011;33997;53.278;9.708;2023-02-17T03:17:46;44.10;;;24.15;;
48207;SDS011;33997;53.278;9.708;2023-02-17T03:20:12;42.15;;;23.55;;
48207;SDS011;33997;53.278;9.708;2023-02-17T03:22:40;44.10;;;22.70;;
48207;SDS011;33997;53.278;9.708;2023-02-17T03:25:10;43.13;;;23.33;;
48207;SDS011;33997;53.278;9.708;2023-02-17T03:27:35;46.65;;;24.83;;
48207;SDS011;33997;53.278;9.708;2023-02-17T03:30:01;46.63;;;26.27;;
48207;SDS011;33997;53.278;9.708;2023-02-17T03:32:28;45.08;;;24.52;;
48207;SDS011;33997;53.278;9.708;2023-02-17T03:34:53;48.63;;;25.55;;
48207;SDS011;33997;53.278;9.708;2023-02-17T03:37:19;51.67;;;25.50;;
48207;SDS011;33997;53.278;9.708;2023-02-17T03:39:44;50.55;;;23.85;;
48207;SDS011;33997;53.278;9.708;2023-02-17T03:42:09;45.60;;;24.33;;
48207;SDS011;33997;53.278;9.708;2023-02-17T03:44:35;50.40;;;26.10;;
48207;SDS011;33997;53.278;9.708;2023-02-17T03:47:00;48.00;;;24.58;;
48207;SDS011;33997;53.278;9.708;2023-02-17T03:49:26;48.28;;;26.58;;
48207;SDS011;33997;53.278;9.708;2023-02-17T03:51:51;49.47;;;23.95;;
48207;SDS011;33997;53.278;9.708;2023-02-17T03:54:17;50.38;;;25.70;;
48207;SDS011;33997;53.278;9.708;2023-02-17T03:56:42;55.13;;;25.05;;
48207;SDS011;33997;53.278;9.708;2023-02-17T03:59:08;46.95;;;24.77;;
48207;SDS011;33997;53.278;9.708;2023-02-17T04:01:33;57.70;;;27.23;;
48207;SDS011;33997;53.278;9.708;2023-02-17T04:03:59;52.28;;;24.23;;
48207;SDS011;33997;53.278;9.708;2023-02-17T04:06:24;55.85;;;25.63;;
48207;SDS011;33997;53.278;9.708;2023-02-17T04:08:50;53.05;;;25.90;;
48207;SDS011;33997;53.278;9.708;2023-02-17T04:11:15;53.53;;;24.88;;
48207;SDS011;33997;53.278;9.708;2023-02-17T04:13:41;55.30;;;25.55;;
48207;SDS011;33997;53.278;9.708;2023-02-17T04:16:07;56.15;;;25.35;;
48207;SDS011;33997;53.278;9.708;2023-02-17T04:18:34;54.58;;;24.25;;
48207;SDS011;33997;53.278;9.708;2023-02-17T04:21:00;47.20;;;23.55;;
48207;SDS011;33997;53.278;9.708;2023-02-17T04:23:26;48.92;;;26.35;;
48207;SDS011;33997;53.278;9.708;2023-02-17T04:25:52;48.42;;;24.52;;
48207;SDS011;33997;53.278;9.708;2023-02-17T04:28:17;52.40;;;25.25;;
48207;SDS011;33997;53.278;9.708;2023-02-17T04:30:43;51.17;;;24.45;;
48207;SDS011;33997;53.278;9.708;2023-02-17T04:33:10;57.00;;;25.17;;
48207;SDS011;33997;53.278;9.708;2023-02-17T04:35:36;52.50;;;25.33;;
48207;SDS011;33997;53.278;9.708;2023-02-17T04:38:02;51.20;;;24.77;;
48207;SDS011;33997;53.278;9.708;2023-02-17T04:40:27;50.45;;;23.73;;
48207;SDS011;33997;53.278;9.708;2023-02-17T04:42:53;58.92;;;26.30;;
48207;SDS011;33997;53.278;9.708;2023-02-17T04:45:18;50.10;;;24.40;;
48207;SDS011;33997;53.278;9.708;2023-02-17T04:47:44;55.83;;;26.13;;
48207;SDS011;33997;53.278;9.708;2023-02-17T04:50:10;54.88;;;24.95;;
48207;SDS011;33997;53.278;9.708;2023-02-17T04:52:36;52.13;;;26.13;;
48207;SDS011;33997;53.278;9.708;2023-02-17T04:55:02;57.08;;;27.33;;
48207;SDS011;33997;53.278;9.708;2023-02-17T04:57:28;59.92;;;28.38;;
48207;SDS011;33997;53.278;9.708;2023-02-17T04:59:54;64.15;;;28.92;;
48207;SDS011;33997;53.278;9.708;2023-02-17T05:02:20;60.72;;;26.77;;
48207;SDS011;33997;53.278;9.708;2023-02-17T05:04:45;63.28;;;28.55;;
48207;SDS011;33997;53.278;9.708;2023-02-17T05:07:11;58.47;;;27.42;;
48207;SDS011;33997;53.278;9.708;2023-02-17T05:09:36;59.33;;;26.85;;
48207;SDS011;33997;53.278;9.708;2023-02-17T05:12:02;59.55;;;26.90;;
48207;SDS011;33997;53.278;9.708;2023-02-17T05:14:29;59.28;;;26.98;;
48207;SDS011;33997;53.278;9.708;2023-02-17T05:16:54;63.28;;;28.50;;
48207;SDS011;33997;53.278;9.708;2023-02-17T05:19:20;64.00;;;28.17;;
48207;SDS011;33997;53.278;9.708;2023-02-17T05:21:45;68.95;;;28.83;;
48207;SDS011;33997;53.278;9.708;2023-02-17T05:24:11;70.13;;;28.75;;
48207;SDS011;33997;53.278;9.708;2023-02-17T05:26:36;69.85;;;27.05;;
48207;SDS011;33997;53.278;9.708;2023-02-17T05:29:02;76.28;;;30.58;;
48207;SDS011;33997;53.278;9.708;2023-02-17T05:31:27;73.80;;;31.10;;
48207;SDS011;33997;53.278;9.708;2023-02-17T05:33:53;70.75;;;31.08;;
48207;SDS011;33997;53.278;9.708;2023-02-17T05:36:19;69.65;;;29.83;;
48207;SDS011;33997;53.278;9.708;2023-02-17T05:38:45;73.70;;;30.83;;
48207;SDS011;33997;53.278;9.708;2023-02-17T05:41:13;73.47;;;30.35;;
48207;SDS011;33997;53.278;9.708;2023-02-17T05:43:39;68.60;;;27.88;;
48207;SDS011;33997;53.278;9.708;2023-02-17T05:46:05;69.00;;;30.00;;
48207;SDS011;33997;53.278;9.708;2023-02-17T05:48:30;73.20;;;27.35;;
48207;SDS011;33997;53.278;9.708;2023-02-17T05:50:56;65.82;;;26.42;;
48207;SDS011;33997;53.278;9.708;2023-02-17T05:53:22;71.88;;;29.63;;
48207;SDS011;33997;53.278;9.708;2023-02-17T05:55:47;70.78;;;29.02;;
48207;SDS011;33997;53.278;9.708;2023-02-17T05:58:12;73.03;;;29.70;;
48207;SDS011;33997;53.278;9.708;2023-02-17T06:00:38;69.95;;;29.42;;
48207;SDS011;33997;53.278;9.708;2023-02-17T06:03:04;81.50;;;30.13;;
48207;SDS011;33997;53.278;9.708;2023-02-17T06:05:29;80.68;;;30.65;;
48207;SDS011;33997;53.278;9.708;2023-02-17T06:07:55;81.60;;;31.38;;
48207;SDS011;33997;53.278;9.708;2023-02-17T06:10:20;71.90;;;27.23;;
48207;SDS011;33997;53.278;9.708;2023-02-17T06:12:46;77.78;;;30.02;;
48207;SDS011;33997;53.278;9.708;2023-02-17T06:15:11;87.10;;;30.88;;
48207;SDS011;33997;53.278;9.708;2023-02-17T06:17:37;80.00;;;28.67;;
48207;SDS011;33997;53.278;9.708;2023-02-17T06:20:02;75.95;;;29.50;;
48207;SDS011;33997;53.278;9.708;2023-02-17T06:22:28;75.03;;;30.77;;
48207;SDS011;33997;53.278;9.708;2023-02-17T06:24:54;81.55;;;29.30;;
48207;SDS011;33997;53.278;9.708;2023-02-17T06:27:19;88.95;;;32.78;;
48207;SDS011;33997;53.278;9.708;2023-02-17T06:29:45;79.13;;;31.95;;
48207;SDS011;33997;53.278;9.708;2023-02-17T06:32:10;79.30;;;32.92;;
48207;SDS011;33997;53.278;9.708;2023-02-17T06:34:36;75.30;;;30.95;;
48207;SDS011;33997;53.278;9.708;2023-02-17T06:37:01;83.22;;;33.65;;
48207;SDS011;33997;53.278;9.708;2023-02-17T06:39:27;82.63;;;33.45;;
48207;SDS011;33997;53.278;9.708;2023-02-17T06:41:52;82.68;;;33.42;;
48207;SDS011;33997;53.278;9.708;2023-02-17T06:44:18;84.40;;;33.58;;
48207;SDS011;33997;53.278;9.708;2023-02-17T06:46:43;86.93;;;34.45;;
48207;SDS011;33997;53.278;9.708;2023-02-17T06:49:10;78.30;;;31.40;;
48207;SDS011;33997;53.278;9.708;2023-02-17T06:51:36;82.60;;;34.35;;
48207;SDS011;33997;53.278;9.708;2023-02-17T06:54:02;79.60;;;35.20;;
48207;SDS011;33997;53.278;9.708;2023-02-17T06:56:27;86.47;;;34.17;;
48207;SDS011;33997;53.278;9.708;2023-02-17T06:58:53;82.47;;;34.28;;
48207;SDS011;33997;53.278;9.708;2023-02-17T07:01:20;76.03;;;31.95;;
48207;SDS011;33997;53.278;9.708;2023-02-17T07:03:50;76.50;;;32.80;;
48207;SDS011;33997;53.278;9.708;2023-02-17T07:06:16;75.05;;;30.33;;
48207;SDS011;33997;53.278;9.708;2023-02-17T07:08:41;77.35;;;34.03;;
48207;SDS011;33997;53.278;9.708;2023-02-17T07:11:08;77.05;;;32.08;;
48207;SDS011;33997;53.278;9.708;2023-02-17T07:13:35;77.75;;;31.63;;
48207;SDS011;33997;53.278;9.708;2023-02-17T07:16:01;64.63;;;27.92;;
48207;SDS011;33997;53.278;9.708;2023-02-17T07:18:27;70.20;;;30.83;;
48207;SDS011;33997;53.278;9.708;2023-02-17T07:20:52;70.00;;;30.33;;
48207;SDS011;33997;53.278;9.708;2023-02-17T07:23:18;65.88;;;30.00;;
48207;SDS011;33997;53.278;9.708;2023-02-17T07:25:43;64.22;;;29.60;;
48207;SDS011;33997;53.278;9.708;2023-02-17T07:28:09;71.45;;;30.20;;
48207;SDS011;33997;53.278;9.708;2023-02-17T07:30:38;57.08;;;25.83;;
48207;SDS011;33997;53.278;9.708;2023-02-17T07:33:05;64.07;;;28.58;;
48207;SDS011;33997;53.278;9.708;2023-02-17T07:35:31;63.22;;;28.83;;
48207;SDS011;33997;53.278;9.708;2023-02-17T07:37:57;59.85;;;26.63;;
48207;SDS011;33997;53.278;9.708;2023-02-17T07:40:24;63.58;;;28.65;;
48207;SDS011;33997;53.278;9.708;2023-02-17T07:42:50;66.10;;;28.25;;
48207;SDS011;33997;53.278;9.708;2023-02-17T07:45:16;50.80;;;23.23;;
48207;SDS011;33997;53.278;9.708;2023-02-17T07:47:41;61.33;;;27.88;;
48207;SDS011;33997;53.278;9.708;2023-02-17T07:50:07;56.83;;;25.90;;
48207;SDS011;33997;53.278;9.708;2023-02-17T07:52:33;50.42;;;24.00;;
48207;SDS011;33997;53.278;9.708;2023-02-17T07:54:59;51.53;;;24.63;;
48207;SDS011;33997;53.278;9.708;2023-02-17T07:57:24;42.90;;;21.48;;
48207;SDS011;33997;53.278;9.708;2023-02-17T07:59:50;51.55;;;25.10;;
48207;SDS011;33997;53.278;9.708;2023-02-17T08:02:15;48.58;;;23.27;;
48207;SDS011;33997;53.278;9.708;2023-02-17T08:04:41;43.15;;;22.42;;
48207;SDS011;33997;53.278;9.708;2023-02-17T08:07:07;51.25;;;24.98;;
48207;SDS011;33997;53.278;9.708;2023-02-17T08:09:32;46.40;;;22.13;;
48207;SDS011;33997;53.278;9.708;2023-02-17T08:12:17;48.42;;;22.50;;
48207;SDS011;33997;53.278;9.708;2023-02-17T08:15:02;44.58;;;22.20;;
48207;SDS011;33997;53.278;9.708;2023-02-17T08:17:30;43.58;;;22.10;;
48207;SDS011;33997;53.278;9.708;2023-02-17T08:19:55;42.85;;;20.02;;
48207;SDS011;33997;53.278;9.708;2023-02-17T08:22:21;39.67;;;19.98;;
48207;SDS011;33997;53.278;9.708;2023-02-17T08:24:46;41.20;;;20.35;;
48207;SDS011;33997;53.278;9.708;2023-02-17T08:27:15;43.92;;;19.77;;
48207;SDS011;33997;53.278;9.708;2023-02-17T08:29:42;39.50;;;19.73;;
48207;SDS011;33997;53.278;9.708;2023-02-17T08:32:08;39.15;;;18.15;;
48207;SDS011;33997;53.278;9.708;2023-02-17T08:34:34;35.85;;;18.00;;
48207;SDS011;33997;53.278;9.708;2023-02-17T08:37:00;37.10;;;18.85;;
48207;SDS011;33997;53.278;9.708;2023-02-17T08:39:28;35.63;;;18.50;;
48207;SDS011;33997;53.278;9.708;2023-02-17T08:41:54;35.97;;;17.52;;
48207;SDS011;33997;53.278;9.708;2023-02-17T08:44:20;30.75;;;16.20;;
48207;SDS011;33997;53.278;9.708;2023-02-17T08:46:46;33.05;;;16.00;;
48207;SDS011;33997;53.278;9.708;2023-02-17T08:49:14;33.53;;;15.63;;
48207;SDS011;33997;53.278;9.708;2023-02-17T08:51:40;30.38;;;15.63;;
48207;SDS011;33997;53.278;9.708;2023-02-17T08:54:07;31.95;;;16.17;;
48207;SDS011;33997;53.278;9.708;2023-02-17T08:56:34;33.38;;;15.10;;
48207;SDS011;33997;53.278;9.708;2023-02-17T08:59:02;26.48;;;14.30;;
48207;SDS011;33997;53.278;9.708;2023-02-17T09:01:28;30.42;;;15.40;;
48207;SDS011;33997;53.278;9.708;2023-02-17T09:03:55;30.40;;;15.07;;
48207;SDS011;33997;53.278;9.708;2023-02-17T09:06:21;27.95;;;13.95;;
48207;SDS011;33997;53.278;9.708;2023-02-17T09:08:47;33.83;;;14.70;;
48207;SDS011;33997;53.278;9.708;2023-02-17T09:11:14;29.88;;;14.88;;
48207;SDS011;33997;53.278;9.708;2023-02-17T09:13:41;28.23;;;15.02;;
48207;SDS011;33997;53.278;9.708;2023-02-17T09:16:07;25.50;;;13.88;;
48207;SDS011;33997;53.278;9.708;2023-02-17T09:18:33;28.50;;;14.70;;
48207;SDS011;33997;53.278;9.708;2023-02-17T09:21:03;23.20;;;12.13;;
48207;SDS011;33997;53.278;9.708;2023-02-17T09:23:29;21.98;;;13.60;;
48207;SDS011;33997;53.278;9.708;2023-02-17T09:26:02;27.45;;;13.18;;
48207;SDS011;33997;53.278;9.708;2023-02-17T09:28:29;25.73;;;14.13;;
48207;SDS011;33997;53.278;9.708;2023-02-17T09:30:55;22.85;;;12.90;;
48207;SDS011;33997;53.278;9.708;2023-02-17T09:33:21;22.48;;;13.63;;
48207;SDS011;33997;53.278;9.708;2023-02-17T09:35:46;26.40;;;13.73;;
48207;SDS011;33997;53.278;9.708;2023-02-17T09:38:13;25.35;;;13.63;;
48207;SDS011;33997;53.278;9.708;2023-02-17T09:40:44;28.20;;;13.57;;
48207;SDS011;33997;53.278;9.708;2023-02-17T09:43:16;25.45;;;13.95;;
48207;SDS011;33997;53.278;9.708;2023-02-17T09:45:49;25.23;;;12.60;;
48207;SDS011;33997;53.278;9.708;2023-02-17T09:48:19;26.70;;;14.38;;
48207;SDS011;33997;53.278;9.708;2023-02-17T09:53:27;28.25;;;14.85;;
48207;SDS011;33997;53.278;9.708;2023-02-17T09:55:58;26.85;;;14.75;;
48207;SDS011;33997;53.278;9.708;2023-02-17T09:58:47;30.88;;;15.20;;
48207;SDS011;33997;53.278;9.708;2023-02-17T10:01:17;26.95;;;13.80;;
48207;SDS011;33997;53.278;9.708;2023-02-17T10:03:53;23.73;;;12.30;;
48207;SDS011;33997;53.278;9.708;2023-02-17T10:06:24;32.97;;;16.13;;
48207;SDS011;33997;53.278;9.708;2023-02-17T10:09:17;30.05;;;16.27;;
48207;SDS011;33997;53.278;9.708;2023-02-17T10:11:52;24.45;;;12.98;;
48207;SDS011;33997;53.278;9.708;2023-02-17T10:14:32;28.73;;;15.57;;
48207;SDS011;33997;53.278;9.708;2023-02-17T10:19:50;31.63;;;15.80;;
48207;SDS011;33997;53.278;9.708;2023-02-17T10:22:21;36.72;;;18.13;;
48207;SDS011;33997;53.278;9.708;2023-02-17T10:24:47;31.85;;;16.20;;
48207;SDS011;33997;53.278;9.708;2023-02-17T10:27:17;35.85;;;17.95;;
48207;SDS011;33997;53.278;9.708;2023-02-17T10:32:49;37.85;;;17.65;;
48207;SDS011;33997;53.278;9.708;2023-02-17T10:35:31;28.92;;;14.75;;
48207;SDS011;33997;53.278;9.708;2023-02-17T10:41:04;33.25;;;17.48;;
48207;SDS011;33997;53.278;9.708;2023-02-17T10:43:30;41.38;;;18.58;;
48207;SDS011;33997;53.278;9.708;2023-02-17T10:45:58;37.22;;;17.73;;
48207;SDS011;33997;53.278;9.708;2023-02-17T10:50:57;33.75;;;18.40;;
48207;SDS011;33997;53.278;9.708;2023-02-17T10:53:25;36.53;;;19.00;;
48207;SDS011;33997;53.278;9.708;2023-02-17T10:56:07;33.42;;;18.75;;
48207;SDS011;33997;53.278;9.708;2023-02-17T10:58:40;34.10;;;18.98;;
48207;SDS011;33997;53.278;9.708;2023-02-17T11:01:30;29.48;;;16.63;;
48207;SDS011;33997;53.278;9.708;2023-02-17T11:04:00;26.13;;;15.75;;
48207;SDS011;33997;53.278;9.708;2023-02-17T11:06:28;28.15;;;14.40;;
48207;SDS011;33997;53.278;9.708;2023-02-17T11:09:05;29.90;;;16.75;;
48207;SDS011;33997;53.278;9.708;2023-02-17T11:11:46;27.27;;;15.93;;
48207;SDS011;33997;53.278;9.708;2023-02-17T11:14:18;35.33;;;19.13;;
48207;SDS011;33997;53.278;9.708;2023-02-17T11:16:56;38.10;;;18.65;;
48207;SDS011;33997;53.278;9.708;2023-02-17T11:19:28;33.33;;;18.23;;
48207;SDS011;33997;53.278;9.708;2023-02-17T11:21:58;32.05;;;17.83;;
48207;SDS011;33997;53.278;9.708;2023-02-17T11:24:25;32.88;;;17.75;;
48207;SDS011;33997;53.278;9.708;2023-02-17T11:26:55;28.45;;;16.67;;
48207;SDS011;33997;53.278;9.708;2023-02-17T11:29:23;32.33;;;17.13;;
48207;SDS011;33997;53.278;9.708;2023-02-17T11:31:53;32.33;;;18.02;;
48207;SDS011;33997;53.278;9.708;2023-02-17T11:34:21;30.40;;;16.55;;
48207;SDS011;33997;53.278;9.708;2023-02-17T11:36:57;32.00;;;18.60;;
48207;SDS011;33997;53.278;9.708;2023-02-17T11:39:24;31.20;;;17.48;;
48207;SDS011;33997;53.278;9.708;2023-02-17T11:41:50;32.88;;;18.17;;
48207;SDS011;33997;53.278;9.708;2023-02-17T11:44:22;28.35;;;16.65;;
48207;SDS011;33997;53.278;9.708;2023-02-17T11:46:54;31.85;;;19.00;;
48207;SDS011;33997;53.278;9.708;2023-02-17T11:49:41;29.83;;;17.50;;
48207;SDS011;33997;53.278;9.708;2023-02-17T12:08:54;31.98;;;16.88;;
48207;SDS011;33997;53.278;9.708;2023-02-17T12:17:18;25.27;;;15.10;;
48207;SDS011;33997;53.278;9.708;2023-02-17T12:20:19;25.58;;;12.98;;
48207;SDS011;33997;53.278;9.708;2023-02-17T12:28:45;25.90;;;14.68;;
48207;SDS011;33997;53.278;9.708;2023-02-17T12:31:20;30.15;;;14.45;;
48207;SDS011;33997;53.278;9.708;2023-02-17T12:36:39;23.17;;;12.18;;
48207;SDS011;33997;53.278;9.708;2023-02-17T12:39:27;20.35;;;11.13;;
48207;SDS011;33997;53.278;9.708;2023-02-17T12:42:19;23.45;;;11.57;;
48207;SDS011;33997;53.278;9.708;2023-02-17T12:44:51;26.10;;;13.25;;
48207;SDS011;33997;53.278;9.708;2023-02-17T12:47:25;27.63;;;11.77;;
48207;SDS011;33997;53.278;9.708;2023-02-17T12:50:23;22.75;;;11.57;;
48207;SDS011;33997;53.278;9.708;2023-02-17T12:53:00;20.65;;;11.15;;
48207;SDS011;33997;53.278;9.708;2023-02-17T12:55:31;22.73;;;11.15;;
48207;SDS011;33997;53.278;9.708;2023-02-17T12:58:06;22.20;;;11.82;;
48207;SDS011;33997;53.278;9.708;2023-02-17T13:01:20;19.38;;;9.23;;
48207;SDS011;33997;53.278;9.708;2023-02-17T13:03:28;17.25;;;8.82;;
48207;SDS011;33997;53.278;9.708;2023-02-17T13:08:54;19.92;;;9.27;;
48207;SDS011;33997;53.278;9.708;2023-02-17T13:11:26;19.67;;;9.10;;
48207;SDS011;33997;53.278;9.708;2023-02-17T13:13:57;16.05;;;8.48;;
48207;SDS011;33997;53.278;9.708;2023-02-17T13:16:43;15.57;;;8.32;;
48207;SDS011;33997;53.278;9.708;2023-02-17T13:19:09;18.92;;;9.13;;
48207;SDS011;33997;53.278;9.708;2023-02-17T13:21:47;14.52;;;7.13;;
48207;SDS011;33997;53.278;9.708;2023-02-17T13:24:34;14.45;;;7.82;;
48207;SDS011;33997;53.278;9.708;2023-02-17T13:32:29;17.15;;;8.30;;
48207;SDS011;33997;53.278;9.708;2023-02-17T13:35:05;18.02;;;9.95;;
48207;SDS011;33997;53.278;9.708;2023-02-17T13:37:51;15.30;;;8.27;;
48207;SDS011;33997;53.278;9.708;2023-02-17T13:42:44;18.92;;;9.80;;
48207;SDS011;33997;53.278;9.708;2023-02-17T13:45:15;18.17;;;10.47;;
48207;SDS011;33997;53.278;9.708;2023-02-17T13:47:51;16.70;;;10.60;;
48207;SDS011;33997;53.278;9.708;2023-02-17T13:52:53;20.58;;;12.10;;
48207;SDS011;33997;53.278;9.708;2023-02-17T13:55:19;23.38;;;11.95;;
48207;SDS011;33997;53.278;9.708;2023-02-17T13:57:50;15.80;;;9.07;;
48207;SDS011;33997;53.278;9.708;2023-02-17T14:00:22;19.27;;;11.48;;
48207;SDS011;33997;53.278;9.708;2023-02-17T14:02:50;19.58;;;10.88;;
48207;SDS011;33997;53.278;9.708;2023-02-17T14:08:00;20.85;;;10.90;;
48207;SDS011;33997;53.278;9.708;2023-02-17T14:10:30;17.17;;;9.10;;
48207;SDS011;33997;53.278;9.708;2023-02-17T14:12:56;16.27;;;9.40;;
48207;SDS011;33997;53.278;9.708;2023-02-17T14:15:26;18.75;;;9.07;;
48207;SDS011;33997;53.278;9.708;2023-02-17T14:17:52;17.98;;;9.20;;
48207;SDS011;33997;53.278;9.708;2023-02-17T14:20:26;16.65;;;8.30;;
48207;SDS011;33997;53.278;9.708;2023-02-17T14:23:05;22.55;;;9.65;;
48207;SDS011;33997;53.278;9.708;2023-02-17T14:25:39;16.83;;;8.45;;
48207;SDS011;33997;53.278;9.708;2023-02-17T14:28:24;19.27;;;8.65;;
48207;SDS011;33997;53.278;9.708;2023-02-17T14:30:51;15.13;;;7.85;;
48207;SDS011;33997;53.278;9.708;2023-02-17T14:35:55;20.80;;;8.93;;
48207;SDS011;33997;53.278;9.708;2023-02-17T14:38:28;20.17;;;8.10;;
48207;SDS011;33997;53.278;9.708;2023-02-17T14:41:01;11.07;;;5.85;;
48207;SDS011;33997;53.278;9.708;2023-02-17T14:43:30;12.85;;;6.93;;
48207;SDS011;33997;53.278;9.708;2023-02-17T14:45:56;12.57;;;6.55;;
48207;SDS011;33997;53.278;9.708;2023-02-17T14:48:22;9.57;;;4.57;;
48207;SDS011;33997;53.278;9.708;2023-02-17T14:50:49;12.02;;;5.75;;
48207;SDS011;33997;53.278;9.708;2023-02-17T14:53:24;12.40;;;5.97;;
48207;SDS011;33997;53.278;9.708;2023-02-17T14:58:28;12.48;;;5.68;;
48207;SDS011;33997;53.278;9.708;2023-02-17T15:00:54;13.18;;;5.55;;
48207;SDS011;33997;53.278;9.708;2023-02-17T15:03:20;13.68;;;5.43;;
48207;SDS011;33997;53.278;9.708;2023-02-17T15:05:46;14.43;;;5.55;;
48207;SDS011;33997;53.278;9.708;2023-02-17T15:08:12;9.40;;;3.78;;
48207;SDS011;33997;53.278;9.708;2023-02-17T15:10:41;12.77;;;4.53;;
48207;SDS011;33997;53.278;9.708;2023-02-17T15:13:17;9.07;;;3.45;;
48207;SDS011;33997;53.278;9.708;2023-02-17T15:15:44;11.45;;;4.20;;
48207;SDS011;33997;53.278;9.708;2023-02-17T15:18:11;8.60;;;2.38;;
48207;SDS011;33997;53.278;9.708;2023-02-17T15:20:39;6.78;;;1.70;;
48207;SDS011;33997;53.278;9.708;2023-02-17T15:23:10;8.35;;;1.83;;
48207;SDS011;33997;53.278;9.708;2023-02-17T15:25:38;8.10;;;1.88;;
48207;SDS011;33997;53.278;9.708;2023-02-17T15:28:03;5.97;;;1.45;;
48207;SDS011;33997;53.278;9.708;2023-02-17T15:30:29;8.60;;;1.65;;
48207;SDS011;33997;53.278;9.708;2023-02-17T15:32:55;7.15;;;2.05;;
48207;SDS011;33997;53.278;9.708;2023-02-17T15:35:22;5.47;;;1.63;;
48207;SDS011;33997;53.278;9.708;2023-02-17T15:37:50;11.48;;;1.52;;
48207;SDS011;33997;53.278;9.708;2023-02-17T15:40:20;9.27;;;1.67;;
48207;SDS011;33997;53.278;9.708;2023-02-17T15:42:52;14.38;;;2.08;;
48207;SDS011;33997;53.278;9.708;2023-02-17T15:45:20;11.30;;;2.05;;
48207;SDS011;33997;53.278;9.708;2023-02-17T15:47:47;10.65;;;1.90;;
48207;SDS011;33997;53.278;9.708;2023-02-17T15:50:15;13.93;;;2.30;;
48207;SDS011;33997;53.278;9.708;2023-02-17T15:52:44;9.15;;;1.90;;
48207;SDS011;33997;53.278;9.708;2023-02-17T15:55:11;13.68;;;2.33;;